createdAt,value
2022-11-02T00:02:18.955Z,13.10
2022-11-02T00:04:45.629Z,13.10
2022-11-02T00:07:14.681Z,13.10
2022-11-02T00:09:41.423Z,13.10
2022-11-02T00:12:08.424Z,13.20
2022-11-02T00:14:35.109Z,13.20
2022-11-02T00:17:02.014Z,13.30
2022-11-02T00:19:32.293Z,13.30
2022-11-02T00:22:01.856Z,13.30
2022-11-02T00:24:29.027Z,13.30
2022-11-02T00:26:55.767Z,13.40
2022-11-02T00:29:24.268Z,13.30
2022-11-02T00:31:51.441Z,13.40
2022-11-02T00:34:18.155Z,13.40
2022-11-02T00:36:50.592Z,13.40
2022-11-02T00:39:20.086Z,13.40
2022-11-02T00:41:46.734Z,13.40
2022-11-02T00:44:13.415Z,13.30
2022-11-02T00:46:40.217Z,13.40
2022-11-02T00:49:06.864Z,13.40
2022-11-02T00:51:33.513Z,13.40
2022-11-02T00:54:00.168Z,13.40
2022-11-02T00:56:26.829Z,13.40
2022-11-02T00:58:53.483Z,13.50
2022-11-02T01:01:20.315Z,13.60
2022-11-02T01:03:47.098Z,13.50
2022-11-02T01:06:15.784Z,13.50
2022-11-02T01:08:44.699Z,13.50
2022-11-02T01:11:22.384Z,13.50
2022-11-02T01:13:50.980Z,13.60
2022-11-02T01:16:17.913Z,13.60
2022-11-02T01:18:44.767Z,13.60
2022-11-02T01:21:11.490Z,13.60
2022-11-02T01:23:38.568Z,13.60
2022-11-02T01:26:09.701Z,13.60
2022-11-02T01:28:39.582Z,13.60
2022-11-02T01:31:06.536Z,13.60
2022-11-02T01:33:33.618Z,13.60
2022-11-02T01:36:04.199Z,13.60
2022-11-02T01:38:31.771Z,13.70
2022-11-02T01:40:59.085Z,13.70
2022-11-02T01:43:32.079Z,13.70
2022-11-02T01:46:10.451Z,13.70
2022-11-02T01:48:39.762Z,13.70
2022-11-02T01:51:12.690Z,13.70
2022-11-02T01:53:46.751Z,13.70
2022-11-02T01:56:17.876Z,13.70
2022-11-02T01:58:51.680Z,13.70
2022-11-02T02:01:18.459Z,13.70
2022-11-02T02:03:46.114Z,13.70
2022-11-02T02:06:14.717Z,13.70
2022-11-02T02:08:47.332Z,13.70
2022-11-02T02:11:35.798Z,13.60
2022-11-02T02:14:17.365Z,13.60
2022-11-02T02:17:02.195Z,13.60
2022-11-02T02:19:34.736Z,13.60
2022-11-02T02:22:13.440Z,13.60
2022-11-02T02:25:17.552Z,13.60
2022-11-02T02:28:21.970Z,13.60
2022-11-02T02:30:58.471Z,13.70
2022-11-02T02:33:34.191Z,13.60
2022-11-02T02:36:10.724Z,13.50
2022-11-02T02:39:12.229Z,13.50
2022-11-02T02:41:58.296Z,13.50
2022-11-02T02:44:29.490Z,13.40
2022-11-02T02:47:01.407Z,13.40
2022-11-02T02:50:01.130Z,13.40
2022-11-02T02:52:32.521Z,13.30
2022-11-02T02:55:01.539Z,13.40
2022-11-02T02:57:31.439Z,13.30
2022-11-02T02:59:58.754Z,13.30
2022-11-02T03:02:31.686Z,13.20
2022-11-02T03:04:58.608Z,13.20
2022-11-02T03:07:34.249Z,13.20
2022-11-02T03:10:11.595Z,13.20
2022-11-02T03:12:38.207Z,13.10
2022-11-02T03:15:24.688Z,13.10
2022-11-02T03:18:10.196Z,13.10
2022-11-02T03:20:39.688Z,13.10
2022-11-02T03:23:26.337Z,13.00
2022-11-02T03:26:14.660Z,13.00
2022-11-02T03:29:03.416Z,13.00
2022-11-02T03:31:46.454Z,13.00
2022-11-02T03:34:28.661Z,13.00
2022-11-02T03:37:05.205Z,12.90
2022-11-02T03:39:41.132Z,12.80
2022-11-02T03:42:13.688Z,12.80
2022-11-02T03:44:41.502Z,12.90
2022-11-02T03:47:15.221Z,12.80
2022-11-02T03:49:44.168Z,12.90
2022-11-02T03:52:16.429Z,12.80
2022-11-02T03:54:51.640Z,12.80
2022-11-02T03:57:35.921Z,12.80
2022-11-02T04:00:14.620Z,12.80
2022-11-02T04:02:44.632Z,12.80
2022-11-02T04:05:11.739Z,12.80
2022-11-02T04:07:59.748Z,12.70
2022-11-02T04:10:26.669Z,12.80
2022-11-02T04:13:12.068Z,12.70
2022-11-02T04:15:41.344Z,12.70
2022-11-02T04:18:26.570Z,12.60
2022-11-02T04:20:55.824Z,12.60
2022-11-02T04:23:40.982Z,12.60
2022-11-02T04:26:10.044Z,12.60
2022-11-02T04:28:36.761Z,12.60
2022-11-02T04:31:03.448Z,12.50
2022-11-02T04:33:35.576Z,12.50
2022-11-02T04:36:07.349Z,12.50
2022-11-02T04:38:40.257Z,12.50
2022-11-02T04:41:30.647Z,12.50
2022-11-02T04:44:00.118Z,12.40
2022-11-02T04:46:33.769Z,12.40
2022-11-02T04:49:00.662Z,12.40
2022-11-02T04:51:32.545Z,12.40
2022-11-02T04:53:59.681Z,12.40
2022-11-02T04:56:28.053Z,12.40
2022-11-02T04:58:57.479Z,12.40
2022-11-02T05:01:26.654Z,12.30
2022-11-02T05:03:54.739Z,12.30
2022-11-02T05:06:26.610Z,12.30
2022-11-02T05:08:55.771Z,12.30
2022-11-02T05:11:24.904Z,12.30
2022-11-02T05:13:51.572Z,12.20
2022-11-02T05:16:18.302Z,12.20
2022-11-02T05:18:45.013Z,12.30
2022-11-02T05:21:12.449Z,12.30
2022-11-02T05:23:39.621Z,12.10
2022-11-02T05:26:12.372Z,12.00
2022-11-02T05:28:39.411Z,12.20
2022-11-02T05:31:06.685Z,12.90
2022-11-02T05:33:36.388Z,11.90
2022-11-02T05:36:03.636Z,12.00
2022-11-02T05:38:32.946Z,11.90
2022-11-02T05:41:00.237Z,11.80
2022-11-02T05:43:27.326Z,11.80
2022-11-02T05:45:54.813Z,11.80
2022-11-02T05:48:22.704Z,11.70
2022-11-02T05:50:50.044Z,11.70
2022-11-02T05:53:19.110Z,11.70
2022-11-02T05:55:45.813Z,11.70
2022-11-02T05:58:15.026Z,11.70
2022-11-02T06:00:41.717Z,11.70
2022-11-02T06:03:08.553Z,11.70
2022-11-02T06:05:35.508Z,11.70
2022-11-02T06:08:02.833Z,11.60
2022-11-02T06:10:30.325Z,11.60
2022-11-02T06:13:04.725Z,11.60
2022-11-02T06:15:32.666Z,11.70
2022-11-02T06:17:59.951Z,11.60
2022-11-02T06:20:26.790Z,11.50
2022-11-02T06:22:55.685Z,11.50
2022-11-02T06:25:24.723Z,11.50
2022-11-02T06:27:58.829Z,11.50
2022-11-02T06:30:25.838Z,11.50
2022-11-02T06:32:53.936Z,11.50
2022-11-02T06:35:23.540Z,11.50
2022-11-02T06:37:50.298Z,11.50
2022-11-02T06:40:18.420Z,11.50
2022-11-02T06:43:03.437Z,11.50
2022-11-02T06:45:34.142Z,11.50
2022-11-02T06:48:01.784Z,11.50
2022-11-02T06:50:30.888Z,11.50
2022-11-02T06:52:57.576Z,11.50
2022-11-02T06:55:24.681Z,11.60
2022-11-02T06:57:53.651Z,11.60
2022-11-02T07:00:23.743Z,11.60
2022-11-02T07:03:09.578Z,11.60
2022-11-02T07:05:37.199Z,11.70
2022-11-02T07:08:04.349Z,11.70
2022-11-02T07:10:31.606Z,11.70
2022-11-02T07:12:58.581Z,11.70
2022-11-02T07:15:26.418Z,11.70
2022-11-02T07:17:54.396Z,11.70
2022-11-02T07:20:23.435Z,11.80
2022-11-02T07:23:01.788Z,11.80
2022-11-02T07:25:33.795Z,11.80
2022-11-02T07:28:04.100Z,11.80
2022-11-02T07:30:32.471Z,11.90
2022-11-02T07:33:02.082Z,11.80
2022-11-02T07:35:28.966Z,11.90
2022-11-02T07:38:04.684Z,12.00
2022-11-02T07:40:33.545Z,12.00
2022-11-02T07:43:00.547Z,12.00
2022-11-02T07:45:29.176Z,12.00
2022-11-02T07:47:56.000Z,12.00
2022-11-02T07:50:24.062Z,12.10
2022-11-02T07:52:55.129Z,12.10
2022-11-02T07:55:27.377Z,12.10
2022-11-02T07:57:57.820Z,12.20
2022-11-02T08:00:26.629Z,12.20
2022-11-02T08:02:58.290Z,12.30
2022-11-02T08:05:26.591Z,12.30
2022-11-02T08:08:04.748Z,12.30
2022-11-02T08:10:37.042Z,12.30
2022-11-02T08:13:07.929Z,12.40
2022-11-02T08:15:34.664Z,12.60
2022-11-02T08:18:37.897Z,12.60
2022-11-02T08:21:04.661Z,12.70
2022-11-02T08:23:31.371Z,12.80
2022-11-02T08:26:00.143Z,12.80
2022-11-02T08:28:31.593Z,13.00
2022-11-02T08:31:02.234Z,13.10
2022-11-02T08:33:31.265Z,13.30
2022-11-02T08:36:04.865Z,13.30
2022-11-02T08:38:32.292Z,13.30
2022-11-02T08:40:58.946Z,13.40
2022-11-02T08:43:27.964Z,13.30
2022-11-02T08:46:17.497Z,13.40
2022-11-02T08:48:47.204Z,13.40
2022-11-02T08:51:13.866Z,13.60
2022-11-02T08:53:40.813Z,13.60
2022-11-02T08:56:09.815Z,13.70
2022-11-02T08:58:36.528Z,13.80
2022-11-02T09:01:03.422Z,14.10
2022-11-02T09:03:30.442Z,14.00
2022-11-02T09:06:03.890Z,14.00
2022-11-02T09:08:30.763Z,14.00
2022-11-02T09:11:03.333Z,14.00
2022-11-02T09:13:30.182Z,14.00
2022-11-02T09:15:58.875Z,14.10
2022-11-02T09:18:28.517Z,14.10
2022-11-02T09:20:55.595Z,14.20
2022-11-02T09:23:22.976Z,14.20
2022-11-02T09:25:50.585Z,14.20
2022-11-02T09:28:19.784Z,14.40
2022-11-02T09:30:46.612Z,14.40
2022-11-02T09:33:13.486Z,14.40
2022-11-02T09:35:45.479Z,14.40
2022-11-02T09:38:12.938Z,14.40
2022-11-02T09:40:41.210Z,14.30
2022-11-02T09:43:32.359Z,14.40
2022-11-02T09:46:19.140Z,14.50
2022-11-02T09:48:51.291Z,14.60
2022-11-02T09:51:22.440Z,14.70
2022-11-02T09:54:17.863Z,14.70
2022-11-02T09:56:48.399Z,14.70
2022-11-02T09:59:20.493Z,14.80
2022-11-02T10:02:05.763Z,14.80
2022-11-02T10:04:53.976Z,14.90
2022-11-02T10:07:36.455Z,15.00
2022-11-02T10:10:05.414Z,15.10
2022-11-02T10:12:55.544Z,15.20
2022-11-02T10:15:44.881Z,15.20
2022-11-02T10:18:22.001Z,15.30
2022-11-02T10:20:55.924Z,15.40
2022-11-02T10:23:36.713Z,15.40
2022-11-02T10:26:03.660Z,15.50
2022-11-02T10:28:38.792Z,15.50
2022-11-02T10:31:27.107Z,15.50
2022-11-02T10:34:00.919Z,15.50
2022-11-02T10:36:40.179Z,15.40
2022-11-02T10:39:26.733Z,15.50
2022-11-02T10:42:01.281Z,15.60
2022-11-02T10:44:49.624Z,15.50
2022-11-02T10:47:22.314Z,15.40
2022-11-02T10:50:30.321Z,15.20
2022-11-02T10:53:20.313Z,15.10
2022-11-02T10:55:59.405Z,15.20
2022-11-02T10:58:30.559Z,15.20
2022-11-02T11:01:13.314Z,15.40
2022-11-02T11:03:53.431Z,15.50
2022-11-02T11:06:20.760Z,15.60
2022-11-02T11:08:49.912Z,15.70
2022-11-02T11:11:25.671Z,15.60
2022-11-02T11:19:56.807Z,15.20
2022-11-02T11:22:38.568Z,15.10
2022-11-02T11:25:13.814Z,15.20
2022-11-02T11:27:57.746Z,15.30
2022-11-02T11:30:59.524Z,15.60
2022-11-02T11:33:20.862Z,15.80
2022-11-02T11:35:52.744Z,15.80
2022-11-02T11:38:26.062Z,15.70
2022-11-02T11:40:59.860Z,15.60
2022-11-02T11:43:29.569Z,15.60
2022-11-02T11:46:03.745Z,15.70
2022-11-02T11:48:50.451Z,15.70
2022-11-02T11:51:37.364Z,15.70
2022-11-02T11:54:24.102Z,15.80
2022-11-02T11:56:58.708Z,15.60
2022-11-02T11:59:46.612Z,15.50
2022-11-02T12:02:27.531Z,15.50
2022-11-02T12:05:17.889Z,15.50
2022-11-02T12:07:55.721Z,15.40
2022-11-02T12:10:34.629Z,15.40
2022-11-02T12:13:19.127Z,15.30
2022-11-02T12:15:58.593Z,15.30
2022-11-02T12:18:34.558Z,15.40
2022-11-02T12:21:18.174Z,15.40
2022-11-02T12:24:02.730Z,15.50
2022-11-02T12:26:35.574Z,15.60
2022-11-02T12:29:23.956Z,15.70
2022-11-02T12:32:18.197Z,15.70
2022-11-02T12:35:29.505Z,15.70
2022-11-02T12:38:05.205Z,15.90
2022-11-02T12:40:50.742Z,15.90
2022-11-02T12:43:49.989Z,15.90
2022-11-02T12:46:48.567Z,15.90
2022-11-02T12:49:35.466Z,15.90
2022-11-02T12:52:30.620Z,16.00
2022-11-02T12:55:00.990Z,16.20
2022-11-02T12:57:33.949Z,16.20
2022-11-02T13:00:04.208Z,16.20
2022-11-02T13:02:38.308Z,16.20
2022-11-02T13:05:22.788Z,16.10
2022-11-02T13:08:03.564Z,16.10
2022-11-02T13:10:38.755Z,16.10
2022-11-02T13:13:12.087Z,15.90
2022-11-02T13:15:40.083Z,15.90
2022-11-02T13:18:30.823Z,16.00
2022-11-02T13:21:00.880Z,15.90
2022-11-02T13:23:56.566Z,16.00
2022-11-02T13:26:28.065Z,15.90
2022-11-02T13:29:22.178Z,15.90
2022-11-02T13:32:00.301Z,16.00
2022-11-02T13:34:43.677Z,16.10
2022-11-02T13:37:19.999Z,16.10
2022-11-02T13:39:53.529Z,16.20
2022-11-02T13:42:34.532Z,16.30
2022-11-02T13:45:40.716Z,16.20
2022-11-02T13:48:25.826Z,16.10
2022-11-02T13:50:59.343Z,16.00
2022-11-02T13:53:37.151Z,16.00
2022-11-02T13:56:20.775Z,16.00
2022-11-02T13:58:56.044Z,16.10
2022-11-02T14:01:23.654Z,16.10
2022-11-02T14:04:05.290Z,16.20
2022-11-02T14:06:43.878Z,16.20
2022-11-02T14:09:18.799Z,16.30
2022-11-02T14:11:49.641Z,16.20
2022-11-02T14:14:22.936Z,16.30
2022-11-02T14:16:49.739Z,16.40
2022-11-02T14:19:19.160Z,16.50
2022-11-02T14:21:46.667Z,16.30
2022-11-02T14:24:32.237Z,16.30
2022-11-02T14:27:14.068Z,16.10
2022-11-02T14:29:49.190Z,16.00
2022-11-02T14:32:22.334Z,16.00
2022-11-02T14:35:13.762Z,16.00
2022-11-02T14:37:59.417Z,16.00
2022-11-02T14:40:36.300Z,15.90
2022-11-02T14:43:30.259Z,16.00
2022-11-02T14:46:46.191Z,16.10
2022-11-02T14:49:34.303Z,16.10
2022-11-02T14:52:21.179Z,16.00
2022-11-02T14:54:51.146Z,15.90
2022-11-02T14:57:29.615Z,15.80
2022-11-02T14:59:59.200Z,15.60
2022-11-02T15:02:38.697Z,15.50
2022-11-02T15:05:22.810Z,15.40
2022-11-02T15:07:58.303Z,15.30
2022-11-02T15:10:31.036Z,15.20
2022-11-02T15:13:19.334Z,15.20
2022-11-02T15:15:52.118Z,15.10
2022-11-02T15:18:34.641Z,15.00
2022-11-02T15:21:10.228Z,14.90
2022-11-02T15:23:55.461Z,14.90
2022-11-02T15:26:48.688Z,14.80
2022-11-02T15:29:44.069Z,14.80
2022-11-02T15:32:22.890Z,14.70
2022-11-02T15:34:52.245Z,14.60
2022-11-02T15:37:34.645Z,14.50
2022-11-02T15:40:19.255Z,14.50
2022-11-02T15:42:52.209Z,14.40
2022-11-02T15:45:42.112Z,14.30
2022-11-02T15:48:42.612Z,14.20
2022-11-02T15:51:36.966Z,14.10
2022-11-02T15:54:33.862Z,14.00
2022-11-02T15:57:24.963Z,14.00
2022-11-02T16:00:21.690Z,13.90
2022-11-02T16:02:54.232Z,13.90
2022-11-02T16:05:26.735Z,13.80
2022-11-02T16:08:15.624Z,13.70
2022-11-02T16:10:42.394Z,13.70
2022-11-02T16:13:19.260Z,13.60
2022-11-02T16:15:48.731Z,13.60
2022-11-02T16:18:27.392Z,13.40
2022-11-02T16:21:01.896Z,13.40
2022-11-02T16:23:36.813Z,13.30
2022-11-02T16:26:09.328Z,13.30
2022-11-02T16:28:39.304Z,13.20
2022-11-02T16:31:19.427Z,13.20
2022-11-02T16:33:56.196Z,13.20
2022-11-02T16:36:24.043Z,13.10
2022-11-02T16:39:13.626Z,13.40
2022-11-02T16:41:41.085Z,13.10
2022-11-02T16:44:16.893Z,13.20
2022-11-02T16:46:55.419Z,13.10
2022-11-02T16:49:24.300Z,13.00
2022-11-02T16:51:52.476Z,12.80
2022-11-02T16:54:31.383Z,12.80
2022-11-02T16:57:11.553Z,12.80
2022-11-02T17:00:00.281Z,12.80
2022-11-02T17:02:33.305Z,12.70
2022-11-02T17:05:05.893Z,12.60
2022-11-02T17:07:38.814Z,12.80
2022-11-02T17:10:07.389Z,12.80
2022-11-02T17:12:43.388Z,12.90
2022-11-02T17:15:25.271Z,12.40
2022-11-02T17:18:11.890Z,12.50
2022-11-02T17:20:40.187Z,12.50
2022-11-02T17:23:09.362Z,12.40
2022-11-02T17:25:38.023Z,12.40
2022-11-02T17:28:40.960Z,12.40
2022-11-02T17:31:19.053Z,12.30
2022-11-02T17:33:46.672Z,12.20
2022-11-02T17:36:16.244Z,12.20
2022-11-02T17:38:47.665Z,12.20
2022-11-02T17:41:36.540Z,12.10
2022-11-02T17:44:09.621Z,12.10
2022-11-02T17:46:37.108Z,12.10
2022-11-02T17:49:04.360Z,12.00
2022-11-02T17:51:31.027Z,12.00
2022-11-02T17:53:57.654Z,11.90
2022-11-02T17:56:24.440Z,11.80
2022-11-02T17:58:51.084Z,11.90
2022-11-02T18:01:18.638Z,11.90
2022-11-02T18:03:45.377Z,11.80
2022-11-02T18:06:14.337Z,11.80
2022-11-02T18:08:59.588Z,11.70
2022-11-02T18:11:26.829Z,11.70
2022-11-02T18:13:56.091Z,11.80
2022-11-02T18:16:25.252Z,11.70
2022-11-02T18:18:51.954Z,11.70
2022-11-02T18:21:18.662Z,11.60
2022-11-02T18:23:45.348Z,11.60
2022-11-02T18:26:12.655Z,11.60
2022-11-02T18:28:39.556Z,11.70
2022-11-02T18:31:07.527Z,11.70
2022-11-02T18:33:34.537Z,11.60
2022-11-02T18:36:06.191Z,11.60
2022-11-02T18:38:35.626Z,11.60
2022-11-02T18:41:29.605Z,11.60
2022-11-02T18:44:13.554Z,11.50
2022-11-02T18:46:41.998Z,11.50
2022-11-02T18:49:11.267Z,11.50
2022-11-02T18:51:38.031Z,11.50
2022-11-02T18:54:07.349Z,11.50
2022-11-02T18:56:36.441Z,11.50
2022-11-02T18:59:06.047Z,11.50
2022-11-02T19:01:32.986Z,11.60
2022-11-02T19:04:00.700Z,11.50
2022-11-02T19:06:48.691Z,11.50
2022-11-02T19:09:20.093Z,11.40
2022-11-02T19:14:39.079Z,11.20
2022-11-02T19:17:07.275Z,11.20
2022-11-02T19:19:34.270Z,11.20
2022-11-02T19:22:01.707Z,11.20
2022-11-02T19:24:28.398Z,11.10
2022-11-02T19:27:00.446Z,11.10
2022-11-02T19:29:29.609Z,11.10
2022-11-02T19:31:58.482Z,11.10
2022-11-02T19:34:25.214Z,11.10
2022-11-02T19:36:52.075Z,11.00
2022-11-02T19:39:18.723Z,11.00
2022-11-02T19:41:48.629Z,11.00
2022-11-02T19:44:15.240Z,11.00
2022-11-02T19:49:11.037Z,10.90
2022-11-02T19:51:37.872Z,10.90
2022-11-02T19:54:04.827Z,10.90
2022-11-02T19:56:35.818Z,10.90
2022-11-02T19:59:03.774Z,11.00
2022-11-02T20:01:35.660Z,10.90
2022-11-02T20:04:05.230Z,10.90
2022-11-02T20:06:42.154Z,10.90
2022-11-02T20:09:14.990Z,10.90
2022-11-02T20:11:44.729Z,10.90
2022-11-02T20:14:15.574Z,10.90
2022-11-02T20:16:42.516Z,10.90
2022-11-02T20:19:10.049Z,10.90
2022-11-02T20:21:42.782Z,10.90
2022-11-02T20:24:10.425Z,10.90
2022-11-02T20:26:38.476Z,10.80
2022-11-02T20:29:12.418Z,10.80
2022-11-02T20:31:42.280Z,10.80
2022-11-02T20:34:09.306Z,10.80
2022-11-02T20:36:36.358Z,10.80
2022-11-02T20:39:07.398Z,10.70
2022-11-02T20:41:34.241Z,10.70
2022-11-02T20:44:03.364Z,10.70
2022-11-02T20:46:38.277Z,10.70
2022-11-02T20:49:21.104Z,10.70
2022-11-02T20:51:50.627Z,10.80
2022-11-02T20:54:19.476Z,10.80
2022-11-02T20:56:46.667Z,10.90
2022-11-02T20:59:18.124Z,10.90
2022-11-02T21:01:45.273Z,10.90
2022-11-02T21:04:18.667Z,10.90
2022-11-02T21:06:49.913Z,10.90
2022-11-02T21:09:17.351Z,10.80
2022-11-02T21:12:05.049Z,10.90
2022-11-02T21:14:31.860Z,10.90
2022-11-02T21:16:58.605Z,10.90
2022-11-02T21:19:25.246Z,10.90
2022-11-02T21:21:59.400Z,10.90
2022-11-02T21:24:27.311Z,10.90
2022-11-02T21:26:56.606Z,10.90
2022-11-02T21:29:23.416Z,10.90
2022-11-02T21:31:50.183Z,10.90
2022-11-02T21:34:16.870Z,10.90
2022-11-02T21:36:43.624Z,10.90
2022-11-02T21:39:10.387Z,10.90
2022-11-02T21:41:38.799Z,10.90
2022-11-02T21:44:09.609Z,10.90
2022-11-02T21:46:36.348Z,10.80
2022-11-02T21:49:06.681Z,10.80
2022-11-02T21:51:34.801Z,10.80
2022-11-02T21:54:01.482Z,10.80
2022-11-02T21:56:31.866Z,10.80
2022-11-02T21:58:58.741Z,10.70
2022-11-02T22:01:49.644Z,10.70
2022-11-02T22:04:28.316Z,10.70
2022-11-02T22:06:56.017Z,10.60
2022-11-02T22:09:22.806Z,10.70
2022-11-02T22:12:09.572Z,10.70
2022-11-02T22:14:37.656Z,10.70
2022-11-02T22:17:16.214Z,10.60
2022-11-02T22:19:45.708Z,10.60
2022-11-02T22:22:12.428Z,10.70
2022-11-02T22:24:44.727Z,10.80
2022-11-02T22:27:14.345Z,10.80
2022-11-02T22:29:40.991Z,10.80
2022-11-02T22:32:07.710Z,10.80
2022-11-02T22:34:36.778Z,10.80
2022-11-02T22:37:21.950Z,10.80
2022-11-02T22:39:48.599Z,10.80
2022-11-02T22:42:15.266Z,10.80
2022-11-02T22:44:44.293Z,10.90
2022-11-02T22:47:10.988Z,10.90
2022-11-02T22:49:37.784Z,10.90
2022-11-02T22:52:04.511Z,10.90
2022-11-02T22:54:31.172Z,10.90
2022-11-02T22:56:57.829Z,10.90
2022-11-02T22:59:29.344Z,10.90
2022-11-02T23:01:56.192Z,10.90
2022-11-02T23:04:22.924Z,10.90
2022-11-02T23:06:52.025Z,10.90
2022-11-02T23:09:21.480Z,11.00
2022-11-02T23:11:50.654Z,11.00
2022-11-02T23:14:17.781Z,10.90
2022-11-02T23:16:47.667Z,10.90
2022-11-02T23:19:31.667Z,10.90
2022-11-02T23:22:21.410Z,10.90
2022-11-02T23:25:09.032Z,10.90
2022-11-02T23:27:58.617Z,10.80
2022-11-02T23:30:51.800Z,10.90
2022-11-02T23:33:19.200Z,10.80
2022-11-02T23:36:06.758Z,10.80
2022-11-02T23:38:52.198Z,10.80
2022-11-02T23:41:19.813Z,10.80
2022-11-02T23:43:46.865Z,10.70
2022-11-02T23:46:14.274Z,10.70
2022-11-02T23:48:47.074Z,10.70
2022-11-02T23:51:35.300Z,10.70
2022-11-02T23:54:20.714Z,10.70
2022-11-02T23:56:47.669Z,10.80
2022-11-02T23:59:17.377Z,10.80
